METAR AND TAF INFORMATION
METAR FOR TDPD
ADDS - METARS form results

(0504 UTC 22 June 2018)
Data provider http://aviationweather.gov/adds/metars/
 
Forecast for: TDPD (MELVILLE HALL AR, DM)
Text: TAF TDPD 212300Z 2200/2224 12015KT 9999 FEW012CB BKN034
Forecast period: 0000 UTC 22 June 2018 to 0000 UTC 23 June 2018
Forecast type: FROM: standard forecast or significant change
Winds: from the ESE (120 degrees) at 17 MPH (15 knots; 7.8 m/s)
Visibility: 6 or more miles (10+ km)
Ceiling: 3400 feet AGL
Clouds: few clouds at 1200 feet AGL
broken clouds at 3400 feet AGL
Weather: no significant weather forecast for this period
Text: PROB30
Forecast period: 0000 to 1800 UTC 22 June 2018
Forecast type: TEMPORARY: The following changes expected for less than half the time period
Visibility: 3 miles (5 km)
Ceiling: 1400 feet AGL
Clouds: broken clouds at 1400 feet AGL
scattered clouds at 1500 feet AGL
Weather: TSRA RA  (rain associated with thunderstorm(s), rain)

 AIRPORT MAP

 RUNWAY INFORMATION
Runway 09 Runway length 4777 ft Runway width 148 ft
Runway elevation 71 ft Runway displaced threshold 174 ft Runway heading 70
Runway 27 Runway length 4777 ft Runway width 148 ft
Runway elevation 14 ft Runway displaced threshold 0 ft Runway heading 250

 AIRPORT FREQUENCIES
Type TWR Name TWR Frequency 118.9 MHZ

 AIRPORT NEAR NAVIGATION AIDS
Type NDB Name Melville Hall Frequency 273 KHZ



Powered by Heron Airways VA. All Rights Reserved © 2009 [v2.6.2]